createdAt,value
2022-11-05T00:02:14.194Z,52.43
2022-11-05T00:05:13.348Z,45.03
2022-11-05T00:08:15.437Z,45.00
2022-11-05T00:10:59.378Z,47.00
2022-11-05T00:14:01.045Z,43.53
2022-11-05T00:16:44.996Z,52.17
2022-11-05T00:19:28.908Z,47.73
2022-11-05T00:22:31.577Z,50.73
2022-11-05T00:25:16.866Z,50.43
2022-11-05T00:28:03.247Z,49.77
2022-11-05T00:30:47.249Z,47.63
2022-11-05T00:33:31.345Z,49.27
2022-11-05T00:36:15.328Z,51.47
2022-11-05T00:39:00.812Z,46.07
2022-11-05T00:42:04.667Z,50.10
2022-11-05T00:45:01.075Z,45.90
2022-11-05T00:48:06.396Z,60.83
2022-11-05T00:50:50.409Z,55.30
2022-11-05T00:53:34.502Z,59.40
2022-11-05T00:56:19.921Z,57.23
2022-11-05T00:59:03.935Z,53.57
2022-11-05T01:01:47.972Z,55.60
2022-11-05T01:04:31.978Z,55.23
2022-11-05T01:07:15.897Z,53.77
2022-11-05T01:09:59.835Z,54.93
2022-11-05T01:12:45.362Z,61.03
2022-11-05T01:15:29.348Z,60.37
2022-11-05T01:18:13.382Z,57.20
2022-11-05T01:20:57.302Z,58.93
2022-11-05T01:23:41.371Z,54.80
2022-11-05T01:26:25.502Z,50.33
2022-11-05T01:29:12.773Z,51.10
2022-11-05T01:31:56.681Z,53.53
2022-11-05T01:34:40.716Z,50.20
2022-11-05T01:37:24.705Z,57.70
2022-11-05T01:40:10.443Z,50.60
2022-11-05T01:42:55.676Z,53.20
2022-11-05T01:45:41.056Z,54.50
2022-11-05T01:48:30.284Z,52.90
2022-11-05T01:51:18.035Z,59.90
2022-11-05T01:54:05.631Z,53.30
2022-11-05T01:56:54.218Z,52.90
2022-11-05T01:59:43.235Z,52.23
2022-11-05T02:02:29.050Z,50.23
2022-11-05T02:05:15.112Z,54.47
2022-11-05T02:07:59.463Z,54.90
2022-11-05T02:10:46.144Z,57.20
2022-11-05T02:13:30.072Z,57.87
2022-11-05T02:16:22.167Z,58.77
2022-11-05T02:19:37.986Z,54.87
2022-11-05T02:22:55.058Z,51.20
2022-11-05T02:26:00.840Z,60.50
2022-11-05T02:29:44.744Z,52.77
2022-11-05T02:32:42.448Z,61.20
2022-11-05T02:35:38.771Z,54.33
2022-11-05T02:38:37.516Z,60.27
2022-11-05T02:41:29.985Z,60.53
2022-11-05T02:44:25.210Z,58.53
2022-11-05T02:47:18.278Z,57.87
2022-11-05T02:50:15.029Z,61.17
2022-11-05T02:53:04.165Z,60.53
2022-11-05T02:55:54.278Z,66.80
2022-11-05T02:58:38.267Z,55.50
2022-11-05T03:01:22.348Z,56.53
2022-11-05T03:04:09.649Z,61.30
2022-11-05T03:07:05.571Z,63.27
2022-11-05T03:10:15.071Z,58.97
2022-11-05T03:13:10.475Z,64.77
2022-11-05T03:15:59.955Z,65.80
2022-11-05T03:18:48.852Z,58.93
2022-11-05T03:21:42.674Z,61.93
2022-11-05T03:24:31.648Z,56.80
2022-11-05T03:27:19.865Z,60.03
2022-11-05T03:30:07.716Z,59.73
2022-11-05T03:32:58.212Z,66.03
2022-11-05T03:35:47.422Z,59.90
2022-11-05T03:38:36.226Z,58.80
2022-11-05T03:41:24.045Z,60.90
2022-11-05T03:44:09.830Z,70.17
2022-11-05T03:46:55.637Z,73.57
2022-11-05T03:49:44.563Z,69.77
2022-11-05T03:52:35.042Z,63.23
2022-11-05T03:55:19.530Z,65.07
2022-11-05T03:58:06.945Z,63.13
2022-11-05T04:00:52.644Z,63.43
2022-11-05T04:03:37.336Z,62.93
2022-11-05T04:06:38.704Z,64.97
2022-11-05T04:09:51.644Z,67.87
2022-11-05T04:12:49.542Z,72.07
2022-11-05T04:15:55.463Z,70.23
2022-11-05T04:18:38.424Z,68.67
2022-11-05T04:21:39.914Z,71.33
2022-11-05T04:24:23.869Z,67.37
2022-11-05T04:27:11.463Z,65.90
2022-11-05T04:30:13.079Z,73.90
2022-11-05T04:33:07.210Z,74.27
2022-11-05T04:35:51.369Z,71.93
2022-11-05T04:38:35.952Z,75.53
2022-11-05T04:41:20.000Z,71.73
2022-11-05T04:44:04.093Z,84.20
2022-11-05T04:46:48.004Z,79.87
2022-11-05T04:49:33.532Z,79.40
2022-11-05T04:52:18.062Z,86.83
2022-11-05T04:55:02.214Z,78.20
2022-11-05T04:57:49.614Z,77.17
2022-11-05T05:00:33.764Z,76.97
2022-11-05T05:03:17.636Z,83.63
2022-11-05T05:06:04.163Z,69.43
2022-11-05T05:08:48.837Z,72.20
2022-11-05T05:11:32.782Z,74.50
2022-11-05T05:14:16.734Z,75.30
2022-11-05T05:17:00.762Z,70.73
2022-11-05T05:19:58.541Z,77.80
2022-11-05T05:22:43.882Z,75.43
2022-11-05T05:25:27.900Z,83.77
2022-11-05T05:28:11.983Z,79.67
2022-11-05T05:31:00.760Z,72.60
2022-11-05T05:33:44.967Z,62.70
2022-11-05T05:36:29.175Z,65.03
2022-11-05T05:39:14.762Z,61.87
2022-11-05T05:41:58.687Z,63.63
2022-11-05T05:44:42.759Z,56.53
2022-11-05T05:47:26.706Z,59.13
2022-11-05T05:50:10.698Z,53.33
2022-11-05T05:52:54.982Z,50.73
2022-11-05T05:55:40.411Z,50.13
2022-11-05T05:58:26.790Z,50.40
2022-11-05T06:01:18.577Z,46.40
2022-11-05T06:04:03.727Z,47.07
2022-11-05T06:06:48.429Z,49.07
2022-11-05T06:09:32.481Z,51.80
2022-11-05T06:12:17.918Z,50.03
2022-11-05T06:15:01.901Z,49.60
2022-11-05T06:17:47.894Z,49.70
2022-11-05T06:20:31.893Z,53.40
2022-11-05T06:23:15.739Z,48.97
2022-11-05T06:26:02.148Z,48.63
2022-11-05T06:28:48.164Z,49.97
2022-11-05T06:31:32.163Z,50.57
2022-11-05T06:34:16.150Z,50.53
2022-11-05T06:37:00.861Z,53.03
2022-11-05T06:39:44.943Z,48.20
2022-11-05T06:42:28.969Z,43.73
2022-11-05T06:45:14.431Z,49.50
2022-11-05T06:47:59.131Z,50.53
2022-11-05T06:50:46.429Z,45.63
2022-11-05T06:53:30.526Z,56.80
2022-11-05T06:56:14.558Z,48.27
2022-11-05T06:58:58.426Z,50.15
2022-11-05T07:01:44.084Z,48.88
2022-11-05T07:04:28.104Z,50.38
2022-11-05T07:07:12.431Z,47.53
2022-11-05T07:09:57.649Z,54.90
2022-11-05T07:12:41.692Z,55.77
2022-11-05T07:15:25.827Z,56.58
2022-11-05T07:18:11.365Z,45.65
2022-11-05T07:20:55.415Z,47.95
2022-11-05T07:23:39.421Z,52.05
2022-11-05T07:26:23.413Z,47.95
2022-11-05T07:29:07.386Z,45.13
2022-11-05T07:31:51.288Z,50.25
2022-11-05T07:34:36.594Z,46.30
2022-11-05T07:37:20.870Z,53.90
2022-11-05T07:40:05.458Z,48.78
2022-11-05T07:42:52.010Z,43.15
2022-11-05T07:45:36.026Z,45.72
2022-11-05T07:48:19.956Z,48.00
2022-11-05T07:51:05.434Z,44.28
2022-11-05T07:53:49.601Z,40.30
2022-11-05T07:56:33.702Z,41.25
2022-11-05T07:59:17.719Z,44.75
2022-11-05T08:02:01.816Z,49.15
2022-11-05T08:04:45.863Z,45.17
2022-11-05T08:07:31.364Z,39.88
2022-11-05T08:10:15.337Z,37.17
2022-11-05T08:12:59.316Z,40.60
2022-11-05T08:15:43.559Z,38.00
2022-11-05T08:18:31.456Z,33.47
2022-11-05T08:21:15.461Z,31.13
2022-11-05T08:24:00.774Z,44.15
2022-11-05T08:26:44.748Z,33.42
2022-11-05T08:29:28.716Z,32.85
2022-11-05T08:32:12.604Z,36.58
2022-11-05T08:34:56.557Z,35.80
2022-11-05T08:37:40.677Z,36.15
2022-11-05T08:40:26.300Z,38.80
2022-11-05T08:43:12.927Z,33.08
2022-11-05T08:45:57.322Z,34.33
2022-11-05T08:48:41.238Z,30.83
2022-11-05T08:51:25.093Z,30.92
2022-11-05T08:54:09.134Z,29.38
2022-11-05T08:56:54.542Z,32.55
2022-11-05T08:59:38.504Z,28.73
2022-11-05T09:02:22.409Z,37.47
2022-11-05T09:05:07.015Z,27.15
2022-11-05T09:07:53.152Z,29.77
2022-11-05T09:10:41.347Z,36.95
2022-11-05T09:13:27.230Z,34.67
2022-11-05T09:16:20.211Z,29.50
2022-11-05T09:19:05.284Z,25.23
2022-11-05T09:21:49.450Z,26.98
2022-11-05T09:24:33.428Z,29.63
2022-11-05T09:27:17.456Z,35.65
2022-11-05T09:30:02.979Z,30.25
2022-11-05T09:32:47.539Z,33.40
2022-11-05T09:35:31.615Z,27.67
2022-11-05T09:38:15.886Z,27.55
2022-11-05T09:41:02.767Z,32.92
2022-11-05T09:43:51.582Z,39.15
2022-11-05T09:46:45.131Z,32.13
2022-11-05T09:49:35.528Z,28.05
2022-11-05T09:52:23.173Z,29.98
2022-11-05T09:55:17.655Z,21.60
2022-11-05T09:58:04.458Z,31.75
2022-11-05T10:00:52.782Z,31.58
2022-11-05T10:03:46.084Z,26.52
2022-11-05T10:06:30.821Z,30.77
2022-11-05T10:09:21.527Z,34.88
2022-11-05T10:12:13.513Z,43.83
2022-11-05T10:15:15.746Z,33.20
2022-11-05T10:18:04.398Z,83.22
2022-11-05T10:20:50.174Z,45.40
2022-11-05T10:23:34.704Z,29.58
2022-11-05T10:26:22.103Z,55.70
2022-11-05T10:29:06.442Z,33.67
2022-11-05T10:31:50.842Z,38.78
2022-11-05T10:34:38.398Z,35.70
2022-11-05T10:37:25.925Z,26.83
2022-11-05T10:40:18.419Z,45.80
2022-11-05T10:43:07.307Z,34.13
2022-11-05T10:45:57.876Z,65.25
2022-11-05T10:48:54.485Z,43.00
2022-11-05T10:51:38.807Z,34.78
2022-11-05T10:54:28.004Z,26.60
2022-11-05T10:57:31.071Z,31.75
2022-11-05T11:00:29.277Z,33.20
2022-11-05T11:03:34.318Z,32.63
2022-11-05T11:06:24.681Z,33.40
2022-11-05T11:09:19.345Z,32.55
2022-11-05T11:12:09.037Z,33.78
2022-11-05T11:15:03.040Z,29.30
2022-11-05T11:17:48.806Z,31.83
2022-11-05T11:20:34.027Z,26.05
2022-11-05T11:23:19.003Z,28.13
2022-11-05T11:26:03.916Z,32.10
2022-11-05T11:28:59.466Z,33.25
2022-11-05T11:31:43.953Z,30.60
2022-11-05T11:34:31.772Z,27.52
2022-11-05T11:37:20.191Z,28.83
2022-11-05T11:40:10.170Z,26.52
2022-11-05T11:42:57.929Z,27.90
2022-11-05T11:45:49.540Z,30.55
2022-11-05T11:48:37.549Z,32.17
2022-11-05T11:51:32.155Z,29.50
2022-11-05T11:54:23.853Z,27.30
2022-11-05T11:57:23.294Z,27.15
2022-11-05T12:00:10.398Z,26.38
2022-11-05T12:03:12.716Z,26.30
2022-11-05T12:06:07.624Z,32.42
2022-11-05T12:09:06.510Z,27.33
2022-11-05T12:12:01.756Z,28.00
2022-11-05T12:14:56.452Z,25.00
2022-11-05T12:17:51.231Z,25.67
2022-11-05T12:20:58.484Z,24.17
2022-11-05T12:24:05.163Z,25.75
2022-11-05T12:27:01.449Z,25.83
2022-11-05T12:29:59.102Z,27.83
2022-11-05T12:32:57.354Z,25.45
2022-11-05T12:35:57.795Z,22.27
2022-11-05T12:39:25.260Z,27.75
2022-11-05T12:42:17.847Z,23.90
2022-11-05T12:45:06.255Z,23.20
2022-11-05T12:48:11.171Z,27.52
2022-11-05T12:51:03.817Z,28.30
2022-11-05T12:54:07.704Z,29.17
2022-11-05T12:56:55.113Z,24.50
2022-11-05T13:00:03.914Z,27.17
2022-11-05T13:02:54.279Z,27.25
2022-11-05T13:05:41.437Z,28.13
2022-11-05T13:08:30.113Z,20.85
2022-11-05T13:11:21.623Z,25.83
2022-11-05T13:14:11.616Z,22.80
2022-11-05T13:17:01.697Z,26.92
2022-11-05T13:19:52.170Z,22.83
2022-11-05T13:22:40.164Z,23.08
2022-11-05T13:25:26.853Z,20.67
2022-11-05T13:28:19.300Z,24.85
2022-11-05T13:31:07.917Z,27.08
2022-11-05T13:33:54.604Z,19.60
2022-11-05T13:37:05.961Z,22.63
2022-11-05T13:39:54.678Z,20.58
2022-11-05T13:43:09.280Z,22.30
2022-11-05T13:46:13.613Z,20.25
2022-11-05T13:49:22.332Z,25.88
2022-11-05T13:52:27.404Z,27.02
2022-11-05T13:55:32.721Z,27.48
2022-11-05T13:58:45.657Z,27.23
2022-11-05T14:01:46.354Z,28.15
2022-11-05T14:04:36.527Z,22.90
2022-11-05T14:07:23.514Z,30.15
2022-11-05T14:10:20.804Z,25.48
2022-11-05T14:13:17.539Z,28.00
2022-11-05T14:16:09.268Z,26.58
2022-11-05T14:18:56.559Z,28.90
2022-11-05T14:21:50.946Z,24.42
2022-11-05T14:24:43.691Z,24.77
2022-11-05T14:27:45.078Z,28.67
2022-11-05T14:30:45.181Z,30.58
2022-11-05T14:33:38.896Z,25.63
2022-11-05T14:36:37.723Z,28.52
2022-11-05T14:39:27.641Z,33.03
2022-11-05T14:42:16.852Z,33.22
2022-11-05T14:45:21.425Z,42.13
2022-11-05T14:48:07.880Z,43.92
2022-11-05T14:50:52.361Z,53.03
2022-11-05T14:53:38.636Z,27.13
2022-11-05T14:56:24.245Z,29.67
2022-11-05T14:59:52.091Z,30.95
2022-11-05T15:02:39.708Z,29.50
2022-11-05T15:05:39.688Z,32.05
2022-11-05T15:08:39.008Z,29.48
2022-11-05T15:11:31.571Z,29.52
2022-11-05T15:14:23.337Z,31.65
2022-11-05T15:17:17.092Z,31.65
2022-11-05T15:20:09.720Z,33.75
2022-11-05T15:22:59.694Z,29.65
2022-11-05T15:25:53.251Z,32.33
2022-11-05T15:28:43.029Z,27.73
2022-11-05T15:31:33.818Z,29.60
2022-11-05T15:34:22.004Z,30.58
2022-11-05T15:37:24.844Z,23.90
2022-11-05T15:40:23.126Z,32.07
2022-11-05T15:43:14.905Z,62.87
2022-11-05T15:46:02.398Z,44.70
2022-11-05T15:48:52.986Z,37.17
2022-11-05T15:51:37.079Z,41.83
2022-11-05T15:54:30.220Z,37.50
2022-11-05T15:57:26.662Z,36.93
2022-11-05T16:00:18.749Z,37.33
2022-11-05T16:03:12.595Z,39.60
2022-11-05T16:05:57.160Z,35.93
2022-11-05T16:08:47.244Z,41.13
2022-11-05T16:11:32.887Z,41.63
2022-11-05T16:14:18.744Z,44.27
2022-11-05T16:17:12.591Z,43.93
2022-11-05T16:19:58.245Z,38.87
2022-11-05T16:22:48.081Z,44.07
2022-11-05T16:25:38.593Z,42.47
2022-11-05T16:28:25.263Z,44.27
2022-11-05T16:31:09.279Z,45.43
2022-11-05T16:33:54.136Z,47.20
2022-11-05T16:36:39.644Z,44.73
2022-11-05T16:39:23.911Z,46.63
2022-11-05T16:42:40.571Z,43.27
2022-11-05T16:45:26.423Z,45.47
2022-11-05T16:48:12.627Z,55.00
2022-11-05T16:50:56.931Z,49.93
2022-11-05T16:53:42.352Z,48.30
2022-11-05T16:56:26.602Z,56.33
2022-11-05T16:59:14.123Z,48.67
2022-11-05T17:01:59.594Z,48.80
2022-11-05T17:04:45.167Z,47.93
2022-11-05T17:07:30.937Z,46.60
2022-11-05T17:10:16.946Z,50.37
2022-11-05T17:13:01.230Z,48.80
2022-11-05T17:15:47.033Z,43.80
2022-11-05T17:18:31.669Z,46.07
2022-11-05T17:21:15.938Z,43.80
2022-11-05T17:24:01.745Z,50.40
2022-11-05T17:26:47.583Z,54.13
2022-11-05T17:29:31.744Z,53.57
2022-11-05T17:32:17.038Z,47.73
2022-11-05T17:35:02.460Z,48.93
2022-11-05T17:37:47.020Z,43.83
2022-11-05T17:40:31.181Z,46.33
2022-11-05T17:43:16.952Z,48.73
2022-11-05T17:46:04.542Z,46.87
2022-11-05T17:48:49.314Z,49.47
2022-11-05T17:51:35.039Z,50.43
2022-11-05T17:54:19.331Z,46.33
2022-11-05T17:57:05.865Z,53.77
2022-11-05T17:59:51.832Z,47.43
2022-11-05T18:02:38.614Z,50.03
2022-11-05T18:05:25.226Z,49.60
2022-11-05T18:08:10.476Z,58.93
2022-11-05T18:10:55.369Z,59.00
2022-11-05T18:13:39.808Z,59.90
2022-11-05T18:16:27.234Z,61.27
2022-11-05T18:19:12.010Z,59.30
2022-11-05T18:22:00.030Z,57.97
2022-11-05T18:24:44.250Z,58.20
2022-11-05T18:27:30.701Z,62.47
2022-11-05T18:30:17.587Z,59.60
2022-11-05T18:33:03.356Z,57.97
2022-11-05T18:35:47.994Z,59.00
2022-11-05T18:38:32.173Z,54.80
2022-11-05T18:41:16.899Z,53.13
2022-11-05T18:44:01.763Z,59.63
2022-11-05T18:46:58.009Z,59.00
2022-11-05T18:49:44.190Z,58.63
2022-11-05T18:52:29.653Z,54.00
2022-11-05T18:55:14.139Z,56.53
2022-11-05T18:57:58.298Z,60.53
2022-11-05T19:00:46.310Z,60.90
2022-11-05T19:03:30.551Z,57.03
2022-11-05T19:06:16.336Z,52.87
2022-11-05T19:09:00.352Z,56.83
2022-11-05T19:11:44.675Z,50.60
2022-11-05T19:14:30.354Z,48.73
2022-11-05T19:17:14.761Z,56.10
2022-11-05T19:19:58.752Z,55.63
2022-11-05T19:22:44.326Z,47.87
2022-11-05T19:25:29.931Z,53.83
2022-11-05T19:28:16.836Z,51.33
2022-11-05T19:31:00.965Z,56.37
2022-11-05T19:33:47.874Z,57.80
2022-11-05T19:36:31.947Z,62.80
2022-11-05T19:39:20.368Z,68.53
2022-11-05T19:42:04.794Z,72.30
2022-11-05T19:44:49.093Z,66.53
2022-11-05T19:47:33.095Z,72.33
2022-11-05T19:50:17.539Z,77.13
2022-11-05T19:53:03.349Z,72.17
2022-11-05T19:55:48.858Z,71.03
2022-11-05T19:58:34.852Z,73.53
2022-11-05T20:01:21.539Z,74.00
2022-11-05T20:04:09.495Z,70.83
2022-11-05T20:06:56.534Z,82.03
2022-11-05T20:09:40.580Z,83.40
2022-11-05T20:12:26.197Z,86.20
2022-11-05T20:15:16.469Z,86.63
2022-11-05T20:18:03.711Z,87.67
2022-11-05T20:20:48.184Z,79.73
2022-11-05T20:23:36.406Z,82.43
2022-11-05T20:26:23.506Z,73.80
2022-11-05T20:29:11.696Z,74.70
2022-11-05T20:31:57.317Z,75.17
2022-11-05T20:34:41.761Z,70.50
2022-11-05T20:40:23.841Z,75.10
2022-11-05T20:43:09.570Z,69.93
2022-11-05T20:45:55.006Z,73.87
2022-11-05T20:48:40.789Z,76.60
2022-11-05T20:51:28.726Z,69.43
2022-11-05T20:54:13.001Z,73.27
2022-11-05T20:56:57.192Z,75.03
2022-11-05T20:59:41.348Z,70.67
2022-11-05T21:02:27.028Z,74.97
2022-11-05T21:05:16.835Z,69.10
2022-11-05T21:08:01.274Z,72.20
2022-11-05T21:10:51.001Z,75.70
2022-11-05T21:13:36.445Z,80.40
2022-11-05T21:16:21.314Z,80.07
2022-11-05T21:19:07.046Z,78.00
2022-11-05T21:21:51.484Z,71.47
2022-11-05T21:24:37.794Z,80.50
2022-11-05T21:27:21.779Z,72.00
2022-11-05T21:30:09.967Z,76.13
2022-11-05T21:32:54.188Z,73.03
2022-11-05T21:35:44.087Z,69.07
2022-11-05T21:38:29.485Z,68.93
2022-11-05T21:41:17.481Z,69.67
2022-11-05T21:44:01.479Z,69.83
2022-11-05T21:46:48.209Z,63.53
2022-11-05T21:49:32.438Z,65.90
2022-11-05T21:52:35.732Z,69.50
2022-11-05T21:55:39.786Z,63.07
2022-11-05T21:58:46.113Z,64.07
2022-11-05T22:01:30.437Z,62.63
2022-11-05T22:04:14.645Z,65.93
2022-11-05T22:06:58.997Z,62.90
2022-11-05T22:09:44.826Z,73.97
2022-11-05T22:12:31.959Z,65.60
2022-11-05T22:15:18.458Z,69.73
2022-11-05T22:18:02.404Z,80.83
2022-11-05T22:20:46.698Z,94.67
2022-11-05T22:23:30.624Z,90.40
2022-11-05T22:26:16.837Z,96.33
2022-11-05T22:29:00.867Z,94.57
2022-11-05T22:31:45.473Z,96.63
2022-11-05T22:34:29.469Z,100.90
2022-11-05T22:37:14.271Z,100.30
2022-11-05T22:39:58.315Z,93.83
2022-11-05T22:42:43.735Z,91.77
2022-11-05T22:45:27.704Z,87.17
2022-11-05T22:48:12.044Z,94.40
2022-11-05T22:50:56.063Z,92.43
2022-11-05T22:53:40.874Z,87.33
2022-11-05T22:56:27.018Z,93.43
2022-11-05T22:59:16.240Z,101.57
2022-11-05T23:02:03.903Z,97.47
2022-11-05T23:04:53.098Z,96.77
2022-11-05T23:07:56.303Z,95.13
2022-11-05T23:10:58.050Z,100.27
2022-11-05T23:13:42.018Z,106.03
2022-11-05T23:16:45.148Z,99.10
2022-11-05T23:19:48.692Z,98.63
2022-11-05T23:22:51.507Z,94.53
2022-11-05T23:25:35.558Z,96.90
2022-11-05T23:28:21.545Z,93.00
2022-11-05T23:31:22.662Z,91.40
2022-11-05T23:34:08.107Z,89.17
2022-11-05T23:37:10.000Z,82.23
2022-11-05T23:39:54.103Z,75.63
2022-11-05T23:42:56.071Z,72.90
2022-11-05T23:45:59.138Z,68.43
2022-11-05T23:48:42.902Z,74.47
2022-11-05T23:51:28.274Z,87.07
2022-11-05T23:54:12.221Z,85.70
2022-11-05T23:56:56.064Z,82.33
2022-11-05T23:59:39.861Z,72.90
